地図

経路データ

SID SEASON NUMBER BASIN SUBBASIN NAME ISO_TIME NATURE LAT LON WMO_WIND WMO_PRES WMO_AGENCY TRACK_TYPE DIST2LAND LANDFALL IFLAG USA_AGENCY USA_ATCF_ID USA_LAT USA_LON USA_RECORD USA_STATUS USA_WIND USA_PRES USA_SSHS USA_R34_NE USA_R34_SE USA_R34_SW USA_R34_NW USA_R50_NE USA_R50_SE USA_R50_SW USA_R50_NW USA_R64_NE USA_R64_SE USA_R64_SW USA_R64_NW USA_POCI USA_ROCI USA_RMW USA_EYE TOKYO_LAT TOKYO_LON TOKYO_GRADE TOKYO_WIND TOKYO_PRES TOKYO_R50_DIR TOKYO_R50_LONG TOKYO_R50_SHORT TOKYO_R30_DIR TOKYO_R30_LONG TOKYO_R30_SHORT TOKYO_LAND CMA_LAT CMA_LON CMA_CAT CMA_WIND CMA_PRES HKO_LAT HKO_LON HKO_CAT HKO_WIND HKO_PRES NEWDELHI_LAT NEWDELHI_LON NEWDELHI_GRADE NEWDELHI_WIND NEWDELHI_PRES NEWDELHI_CI NEWDELHI_DP NEWDELHI_POCI REUNION_LAT REUNION_LON REUNION_TYPE REUNION_WIND REUNION_PRES REUNION_TNUM REUNION_CI REUNION_RMW REUNION_R34_NE REUNION_R34_SE REUNION_R34_SW REUNION_R34_NW REUNION_R50_NE REUNION_R50_SE REUNION_R50_SW REUNION_R50_NW REUNION_R64_NE REUNION_R64_SE REUNION_R64_SW REUNION_R64_NW BOM_LAT BOM_LON BOM_TYPE BOM_WIND BOM_PRES BOM_TNUM BOM_CI BOM_RMW BOM_R34_NE BOM_R34_SE BOM_R34_SW BOM_R34_NW BOM_R50_NE BOM_R50_SE BOM_R50_SW BOM_R50_NW BOM_R64_NE BOM_R64_SE BOM_R64_SW BOM_R64_NW BOM_ROCI BOM_POCI BOM_EYE BOM_POS_METHOD BOM_PRES_METHOD NADI_LAT NADI_LON NADI_CAT NADI_WIND NADI_PRES WELLINGTON_LAT WELLINGTON_LON WELLINGTON_WIND WELLINGTON_PRES DS824_LAT DS824_LON DS824_STAGE DS824_WIND DS824_PRES TD9636_LAT TD9636_LON TD9636_STAGE TD9636_WIND TD9636_PRES TD9635_LAT TD9635_LON TD9635_WIND TD9635_PRES TD9635_ROCI NEUMANN_LAT NEUMANN_LON NEUMANN_CLASS NEUMANN_WIND NEUMANN_PRES MLC_LAT MLC_LON MLC_CLASS MLC_WIND MLC_PRES USA_GUST BOM_GUST BOM_GUST_PER REUNION_GUST REUNION_GUST_PER USA_SEAHGT USA_SEARAD_NE USA_SEARAD_SE USA_SEARAD_SW USA_SEARAD_NW STORM_SPEED STORM_DIR
1921245N18089 1921 40 NI BB NOT_NAMED 1921-09-02 00:00:00 TS 17.8000 88.8000 main 352 345 _________O____ -1 17.8000 88.8000 TC 30 3 282
1921245N18089 1921 40 NI BB NOT_NAMED 1921-09-02 03:00:00 TS 17.8267 88.6617 main 345 322 _________PO___ -1 17.8400 88.5925 TC 30 17.8000 88.8000 1 3 286
1921245N18089 1921 40 NI BB NOT_NAMED 1921-09-02 06:00:00 TS 17.8870 88.4838 main 322 299 _________OP___ -1 17.9000 88.4000 TC 30 17.8674 88.6095 1 4 293
1921245N18089 1921 40 NI BB NOT_NAMED 1921-09-02 09:00:00 TS 17.9690 88.3165 main 299 284 _________PP___ -1 17.9925 88.2350 TC 30 17.9377 88.4251 1 3 300
1921245N18089 1921 40 NI BB NOT_NAMED 1921-09-02 12:00:00 TS 18.0571 88.1766 main 284 277 _________OP___ -1 18.1000 88.1000 TC 30 18.0142 88.2532 1 3 306
1921245N18089 1921 40 NI BB NOT_NAMED 1921-09-02 15:00:00 TS 18.1500 88.0500 main 277 255 _________PO___ -1 18.2000 88.0000 TC 30 18.1000 88.1000 1 3 310
1921245N18089 1921 40 NI BB NOT_NAMED 1921-09-02 18:00:00 TS 18.2484 87.9343 main 255 240 _________OP___ -1 18.3000 87.9000 TC 30 18.1968 87.9687 1 3 311
1921245N18089 1921 40 NI BB NOT_NAMED 1921-09-02 21:00:00 TS 18.3537 87.8075 main 231 225 _________PP___ -1 18.4075 87.7650 TC 30 18.2998 87.8499 1 3 309
1921245N18089 1921 40 NI BB NOT_NAMED 1921-09-03 00:00:00 TS 18.4515 87.6656 main 216 203 _________OP___ -1 18.5000 87.6000 TC 30 18.4030 87.7312 1 3 300
1921245N18089 1921 40 NI BB NOT_NAMED 1921-09-03 03:00:00 TS 18.5250 87.5000 main 203 182 _________PO___ -1 18.5500 87.4000 TC 30 18.5000 87.6000 1 4 293
1921245N18089 1921 40 NI BB NOT_NAMED 1921-09-03 06:00:00 TS 18.5911 87.3156 main 182 167 _________OP___ -1 18.6000 87.2000 TC 30 18.5822 87.4312 1 4 295
1921245N18089 1921 40 NI BB NOT_NAMED 1921-09-03 09:00:00 TS 18.6788 87.1462 main 162 148 _________PP___ -1 18.7000 87.0425 TC 30 18.6576 87.2500 1 4 299
1921245N18089 1921 40 NI BB NOT_NAMED 1921-09-03 12:00:00 TS 18.7646 86.9844 main 148 140 _________OP___ -1 18.8000 86.9000 TC 30 18.7291 87.0687 1 3 295
1921245N18089 1921 40 NI BB NOT_NAMED 1921-09-03 15:00:00 TS 18.8250 86.8212 main 140 127 _________PO___ -1 18.8500 86.7425 TC 30 18.8000 86.9000 1 3 293
1921245N18089 1921 40 NI BB NOT_NAMED 1921-09-03 18:00:00 TS 18.8772 86.6964 main 127 123 _________OP___ -1 18.9000 86.6000 TC 30 18.8544 86.7927 1 2 301
1921245N18089 1921 40 NI BB NOT_NAMED 1921-09-03 21:00:00 TS 18.9447 86.6121 main 123 109 _________PP___ -1 18.9774 86.5298 TC 30 18.9120 86.6944 1 3 310
1921245N18089 1921 40 NI BB NOT_NAMED 1921-09-04 00:00:00 TS 19.0443 86.4869 main 109 81 _________OP___ -1 19.1000 86.4000 TC 30 18.9887 86.5739 1 4 305
1921245N18089 1921 40 NI BB NOT_NAMED 1921-09-04 03:00:00 TS 19.1926 86.2401 main 78 45 _________PO___ -1 19.2851 86.0801 TC 30 19.1000 86.4000 1 6 302
1921245N18089 1921 40 NI BB NOT_NAMED 1921-09-04 06:00:00 TS 19.3842 85.9164 main 45 15 _________OP___ -1 19.5000 85.7000 TC 30 19.2683 86.1328 1 7 303
1921245N18089 1921 40 NI BB NOT_NAMED 1921-09-04 09:00:00 TS 19.5851 85.6014 main 15 0 _________PP___ -1 19.6999 85.3924 TC 30 19.4703 85.8104 1 7 304
1921245N18089 1921 40 NI BB NOT_NAMED 1921-09-04 12:00:00 TS 19.7935 85.2789 main 0 0 _________OP___ -1 19.9000 85.1000 TC 30 19.6870 85.4578 1 7 304
1921245N18089 1921 40 NI BB NOT_NAMED 1921-09-04 15:00:00 TS 20.0037 84.9537 main 0 0 _________PO___ -1 20.1074 84.8074 TC 30 19.9000 85.1000 1 7 303
1921245N18089 1921 40 NI BB NOT_NAMED 1921-09-04 18:00:00 TS 20.1744 84.6611 main 0 0 _________OP___ -1 20.3000 84.5000 TC 30 20.0487 84.8222 1 6 299
1921245N18089 1921 40 NI BB NOT_NAMED 1921-09-04 21:00:00 TS 20.3115 84.3698 main 0 0 _________PP___ -1 20.4271 84.2019 TC 30 20.1960 84.5376 1 7 297
1921245N18089 1921 40 NI BB NOT_NAMED 1921-09-05 00:00:00 TS 20.4851 84.0046 main 0 0 _________OP___ -1 20.6000 83.8000 TC 30 20.3703 84.2093 1 9 298
1921245N18089 1921 40 NI BB NOT_NAMED 1921-09-05 03:00:00 TS 20.7564 83.4939 main 0 0 _________PO___ -1 20.9128 83.1877 TC 30 20.6000 83.8000 1 12 301
1921245N18089 1921 40 NI BB NOT_NAMED 1921-09-05 06:00:00 TS 21.1134 82.8692 main 0 0 _________OP___ -1 21.3000 82.5000 TC 30 20.9268 83.2383 1 14 302
1921245N18089 1921 40 NI BB NOT_NAMED 1921-09-05 09:00:00 TS 21.5033 82.2335 main 0 0 _________PP___ -1 21.6999 81.8700 TC 30 21.3067 82.5970 1 14 304
1921245N18089 1921 40 NI BB NOT_NAMED 1921-09-05 12:00:00 TS 21.9040 81.6160 main 0 0 _________OP___ -1 22.1000 81.3000 TC 30 21.7081 81.9319 1 13 306
1921245N18089 1921 40 NI BB NOT_NAMED 1921-09-05 15:00:00 TS 22.2823 81.0673 main 0 0 _________PO___ -1 22.4646 80.8346 TC 30 22.1000 81.3000 1 12 307
1921245N18089 1921 40 NI BB NOT_NAMED 1921-09-05 18:00:00 TS 22.6316 80.5745 main 0 0 _________OP___ -1 22.8000 80.4000 TC 30 22.4631 80.7491 1 12 306
1921245N18089 1921 40 NI BB NOT_NAMED 1921-09-05 21:00:00 TS 22.9660 80.0575 main 0 0 _________PP___ -1 23.1227 79.8701 TC 30 22.8094 80.2448 1 11 305
1921245N18089 1921 40 NI BB NOT_NAMED 1921-09-06 00:00:00 TS 23.2630 79.5966 main 0 0 _________OP___ -1 23.4000 79.4000 TC 30 23.1259 79.7931 1 9 307
1921245N18089 1921 40 NI BB NOT_NAMED 1921-09-06 03:00:00 TS 23.5111 79.2598 main 0 0 _________PO___ -1 23.6222 79.1196 TC 30 23.4000 79.4000 1 7 308
1921245N18089 1921 40 NI BB NOT_NAMED 1921-09-06 06:00:00 TS 23.7128 78.9771 main 0 0 _________OP___ -1 23.8000 78.9000 TC 30 23.6255 79.0543 1 7 305
1921245N18089 1921 40 NI BB NOT_NAMED 1921-09-06 09:00:00 TS 23.8834 78.6794 main 0 0 _________PP___ -1 23.9576 78.5925 TC 30 23.8092 78.7663 1 6 302
1921245N18089 1921 40 NI BB NOT_NAMED 1921-09-06 12:00:00 TS 24.0316 78.4101 main 0 0 _________OP___ -1 24.1000 78.3000 TC 30 23.9633 78.5202 1 5 304
1921245N18089 1921 40 NI BB NOT_NAMED 1921-09-06 15:00:00 TS 24.1787 78.1925 main 0 0 _________PO___ -1 24.2574 78.0849 TC 30 24.1000 78.3000 1 5 307
1921245N18089 1921 40 NI BB NOT_NAMED 1921-09-06 18:00:00 TS 24.3027 78.0096 main 0 0 _________OP___ -1 24.4000 77.9000 TC 30 24.2297 78.0917 1 4 305
1921245N18089 1921 40 NI AS NOT_NAMED 1921-09-06 21:00:00 TS 24.4173 77.8164 main 0 0 _________PP___ -1 24.5101 77.7051 TC 30 24.3555 77.8906 1 4 302
1921245N18089 1921 40 NI AS NOT_NAMED 1921-09-07 00:00:00 TS 24.5190 77.6295 main 0 0 _________OP___ -1 24.6000 77.5000 TC 30 24.4785 77.6942 1 3 302
1921245N18089 1921 40 NI AS NOT_NAMED 1921-09-07 03:00:00 NR 24.6000 77.5000 main 0 __________O___ -1 TC 24.6000 77.5000 1 3 305

IBTrACS Databaseについて

本データベースは、米国NOAAが公開する1842年以降の世界の熱帯低気圧のベストトラックデータアーカイブInternational Best Track Archive for Climate Stewardship (IBTrACS)を、ウェブで閲覧しやすい形式に変換したものです。

最終更新日:2021-10-08